Flight Track Log - Related Links

Times and Time Zones

All times are in EDT time to prevent confusion due to time zone crossing. See the LXJ549 flight status page for this flight to view local times or setup timezone preferences in your user account.

Time Position Orientation Groundspeed Altitude Reporting Facility
EDT Latitude Longitude Course Direction KTS MPH feet Rate Location/Type
Wed 11:01:48 AM 39.2594 -106.8792 289° West 185 213 9,500  Level Denver Center
Wed 11:02:50 AM 39.2772 -106.9458 289° West 214 246 12,400 2,952 Climbing Denver Center
Wed 11:03:52 AM 39.2997 -107.0133 293° West 210 242 15,600 2,371 Climbing Denver Center
Wed 11:04:54 AM 39.3633 -107.0158 358° North 232 267 17,300 1,645 Climbing Denver Center
Wed 11:05:56 AM 39.4592 -107.0072 North 298 343 19,000 2,081 Climbing Denver Center
Wed 11:06:58 AM 39.5669 -106.9972 North 336 387 21,600 2,613 Climbing Denver Center
Wed 11:08:00 AM 39.6631 -106.9806 North 361 415 24,400 2,323 Climbing Denver Center
Wed 11:09:02 AM 39.7661 -106.9522 12° North 359 413 26,400 1,680 Climbing Denver Center
Wed 11:10:05 AM 39.8692 -106.9222 13° North 374 430 27,900 1,776 Climbing Denver Center
Wed 11:11:07 AM 39.9600 -106.8292 38° Northeast 399 459 30,100 1,984 Climbing Denver Center
Wed 11:12:09 AM 39.9836 -106.6883 78° East 416 479 32,000 1,790 Climbing Denver Center
Wed 11:13:11 AM 40.0036 -106.5472 79° East 415 478 33,800 1,355 Climbing Denver Center
Wed 11:14:13 AM 40.0244 -106.3964 80° East 425 489 34,800 581 Climbing Denver Center
Wed 11:15:15 AM 40.0500 -106.2050 80° East 444 511 35,000 339 Climbing Denver Center
Wed 11:16:17 AM 40.0700 -106.0381 81° East 461 531 35,500 1,016 Climbing Denver Center
Wed 11:17:19 AM 40.0914 -105.8761 80° East 456 525 37,100 1,742 Climbing Denver Center
Wed 11:18:21 AM 40.1142 -105.7103 80° East 441 507 39,100 1,548 Climbing Denver Center
Wed 11:19:23 AM 40.1344 -105.5597 80° East 425 489 40,300 919 Climbing Denver Center
Wed 11:20:25 AM 40.1547 -105.3994 81° East 417 480 41,000 339 Climbing Denver Center
Wed 11:21:27 AM 40.1750 -105.2486 80° East 421 484 41,000  Level Denver Center
Wed 11:22:29 AM 40.1947 -105.0869 81° East 418 481 41,000  Level Denver Center
Wed 11:23:31 AM 40.2142 -104.9372 80° East 418 481 41,000  Level Denver Center
Wed 11:24:33 AM 40.2322 -104.7897 81° East 413 475 41,000  Level Denver Center
Wed 11:25:36 AM 40.2514 -104.6289 81° East 415 478 41,000  Level Denver Center
Wed 11:26:38 AM 40.2686 -104.4789 81° East 416 479 41,000  Level Denver Center
Wed 11:27:40 AM 40.2875 -104.3186 81° East 414 476 41,000  Level Denver Center
Wed 11:28:42 AM 40.3050 -104.1689 81° East 415 478 41,000  Level Denver Center
Wed 11:29:44 AM 40.3236 -104.0058 81° East 422 486 41,000  Level Denver Center
Wed 11:30:46 AM 40.3411 -103.8531 81° East 423 487 41,000  Level Denver Center
Wed 11:31:48 AM 40.3575 -103.6981 82° East 428 493 41,000  Level Denver Center
Wed 11:32:50 AM 40.3767 -103.5314 81° East 423 487 41,000  Level Denver Center
Wed 11:33:52 AM 40.3931 -103.3822 82° East 432 497 41,000  Level Denver Center
Wed 11:34:54 AM 40.4100 -103.2289 82° East 428 493 41,000  Level Denver Center
Wed 11:35:56 AM 40.4275 -103.0561 82° East 429 494 41,000  Level Denver Center
Wed 11:36:58 AM 40.4436 -102.9069 82° East 431 496 41,000  Level Denver Center
Wed 11:38:00 AM 40.4611 -102.7325 82° East 434 499 41,000  Level Denver Center
Wed 11:39:02 AM 40.4767 -102.5822 82° East 435 501 41,000  Level Denver Center
Wed 11:40:04 AM 40.4944 -102.4069 82° East 435 501 41,000  Level Denver Center
Wed 11:41:06 AM 40.5100 -102.2564 82° East 435 501 41,000  Level Denver Center
Wed 11:42:09 AM 40.5256 -102.0825 83° East 430 495 41,000  Level Denver Center
Wed 11:43:11 AM 40.5417 -101.9311 82° East 434 499 41,000  Level Denver Center
Wed 11:44:13 AM 40.5583 -101.7558 83° East 433 498 41,000  Level Denver Center
Wed 11:45:15 AM 40.5717 -101.6036 83° East 438 504 41,000  Level Denver Center
Wed 11:46:17 AM 40.5897 -101.4275 82° East 438 504 41,000  Level Denver Center
Wed 11:47:19 AM 40.6033 -101.2747 83° East 439 505 41,000  Level Denver Center
Wed 11:48:21 AM 40.6192 -101.0972 83° East 440 506 41,000  Level Denver Center
Wed 11:49:23 AM 40.6322 -100.9453 83° East 439 505 41,000  Level Denver Center
Wed 11:50:25 AM 40.6464 -100.7692 84° East 439 505 41,000 387 Level Denver Center
Wed 11:51:27 AM 40.6606 -100.6192 83° East 439 505 41,800 726 Climbing Denver Center
Wed 11:52:29 AM 40.6753 -100.4456 84° East 433 498 42,500 581 Climbing Denver Center
Wed 11:53:31 AM 40.6875 -100.2975 84° East 429 494 43,000 532 Climbing Denver Center
Wed 11:54:33 AM 40.7019 -100.1228 84° East 431 496 43,600 484 Climbing Denver Center
Wed 11:55:35 AM 40.7139 -99.9731 84° East 431 496 44,000 484 Climbing Denver Center
Wed 11:56:37 AM 40.7269 -99.8014 84° East 428 493 44,600 484 Climbing Denver Center
Wed 11:57:39 AM 40.7394 -99.6483 84° East 422 486 45,000 192 Climbing Denver Center
Wed 11:58:42 AM 40.7508 -99.4936 84° East 424 488 45,000  Level Denver Center
Wed 11:59:44 AM 40.7631 -99.3358 84° East 433 498 45,000  Level Denver Center
Wed 12:00:46 PM 40.7739 -99.1756 85° East 439 505 45,000  Level Denver Center
Wed 12:01:48 PM 40.7861 -98.9931 85° East 444 511 45,000  Level Denver Center
Wed 12:02:50 PM 40.7989 -98.8097 85° East 449 517 45,000  Level Denver Center
Wed 12:03:52 PM 40.8100 -98.6558 85° East 452 520 45,000  Level Denver Center
Wed 12:04:54 PM 40.8208 -98.4908 85° East 455 524 45,000  Level Denver Center
Wed 12:06:15 PM 40.8361 -98.2583 85° East 459 528 45,000  Level Minneapolis Center
Wed 12:07:17 PM 40.8461 -98.0919 85° East 458 527 45,000  Level Minneapolis Center
Wed 12:08:19 PM 40.8561 -97.9244 85° East 459 528 45,000  Level Minneapolis Center
Wed 12:09:21 PM 40.8683 -97.7247 85° East 456 525 45,000  Level Minneapolis Center
Wed 12:10:23 PM 40.8775 -97.5581 86° East 457 526 45,000  Level Minneapolis Center
Wed 12:11:25 PM 40.8875 -97.3900 85° East 458 527 45,000  Level Minneapolis Center
Wed 12:12:27 PM 40.8964 -97.2128 86° East 453 521 45,000  Level Minneapolis Center
Wed 12:13:30 PM 40.9061 -97.0483 85° East 450 518 45,000  Level Minneapolis Center
Wed 12:14:32 PM 40.9150 -96.8844 86° East 449 517 45,000  Level Minneapolis Center
Wed 12:15:34 PM 40.9258 -96.7225 85° East 445 512 45,000  Level Minneapolis Center
Wed 12:16:36 PM 40.9467 -96.5644 80° East 441 507 45,000  Level Minneapolis Center
Wed 12:17:38 PM 40.9742 -96.3733 79° East 442 509 45,000  Level Minneapolis Center
Wed 12:18:40 PM 40.9950 -96.2150 80° East 441 507 45,000  Level Minneapolis Center
Wed 12:19:42 PM 41.0147 -96.0583 80° East 439 505 45,000  Level Minneapolis Center
Wed 12:20:44 PM 41.0361 -95.9006 80° East 439 505 45,000  Level Minneapolis Center
Wed 12:21:46 PM 41.0564 -95.7408 80° East 444 511 45,000  Level Minneapolis Center
Wed 12:22:48 PM 41.0819 -95.5453 80° East 450 518 45,000  Level Minneapolis Center
Wed 12:23:50 PM 41.1028 -95.3792 80° East 457 526 45,000  Level Minneapolis Center
Wed 12:24:53 PM 41.1256 -95.2117 80° East 461 531 45,000  Level Minneapolis Center
Wed 12:25:55 PM 41.1467 -95.0447 80° East 462 532 45,000  Level Minneapolis Center
Wed 12:26:57 PM 41.1669 -94.8775 81° East 461 531 45,000  Level Minneapolis Center
Wed 12:27:59 PM 41.1914 -94.6767 81° East 461 531 45,000  Level Minneapolis Center
Wed 12:29:01 PM 41.2114 -94.5089 81° East 461 531 45,000  Level Minneapolis Center
Wed 12:30:03 PM 41.2314 -94.3419 81° East 459 528 45,000  Level Minneapolis Center
Wed 12:31:05 PM 41.2525 -94.1636 81° East 461 531 45,000  Level Minneapolis Center
Wed 12:32:07 PM 41.2717 -93.9958 81° East 461 531 45,000  Level Minneapolis Center
Wed 12:33:09 PM 41.2914 -93.8281 81° East 462 532 45,000  Level Minneapolis Center
Wed 12:34:11 PM 41.3122 -93.6608 81° East 462 532 45,000  Level Minneapolis Center
Wed 12:35:14 PM 41.3342 -93.4928 80° East 462 532 45,000  Level Minneapolis Center
Wed 12:36:16 PM 41.3586 -93.2908 81° East 464 534 45,000  Level Minneapolis Center
Wed 12:37:18 PM 41.3792 -93.1208 81° East 466 536 45,000  Level Minneapolis Center
Wed 12:38:21 PM 41.3992 -92.9511 81° East 466 536 45,000  Level Minneapolis Center
Wed 12:39:23 PM 41.4197 -92.7825 81° East 465 535 45,000  Level Minneapolis Center
Wed 12:40:25 PM 41.4394 -92.6119 81° East 465 535 45,000  Level Minneapolis Center
Wed 12:41:07 PM 41.4550 -92.4733 81° East 468 539 45,000  Level Chicago Center
Wed 12:42:09 PM 41.4761 -92.2850 81° East 469 540 45,000  Level Chicago Center
Wed 12:43:11 PM 41.4953 -92.1150 81° East 470 541 45,000  Level Chicago Center
Wed 12:44:13 PM 41.5139 -91.9450 82° East 470 541 45,000  Level Chicago Center
Wed 12:45:15 PM 41.5331 -91.7753 81° East 470 541 45,000  Level Chicago Center
Wed 12:46:18 PM 41.5542 -91.5706 82° East 470 541 45,000  Level Chicago Center
Wed 12:47:20 PM 41.5717 -91.4006 82° East 470 541 45,000  Level Chicago Center
Wed 12:48:22 PM 41.5903 -91.2300 82° East 470 541 45,000  Level Chicago Center
Wed 12:49:24 PM 41.6069 -91.0597 82° East 469 540 45,000  Level Chicago Center
Wed 12:50:26 PM 41.6242 -90.8908 82° East 467 537 45,000  Level Chicago Center
Wed 12:51:28 PM 41.6447 -90.6878 82° East 465 535 45,000  Level Chicago Center
Wed 12:52:30 PM 41.6614 -90.5181 82° East 466 536 45,000  Level Chicago Center
Wed 12:53:32 PM 41.6781 -90.3447 83° East 469 540 45,000  Level Chicago Center
Wed 12:54:34 PM 41.6942 -90.1728 83° East 464 534 45,000  Level Chicago Center
Wed 12:55:36 PM 41.7097 -89.9981 83° East 471 542 45,000  Level Chicago Center
Wed 12:56:38 PM 41.7264 -89.8239 83° East 471 542 45,000  Level Chicago Center
Wed 12:57:40 PM 41.7461 -89.6122 83° East 476 548 45,000  Level Chicago Center
Wed 12:58:42 PM 41.7614 -89.4267 84° East 476 548 45,000  Level Chicago Center
Wed 12:59:45 PM 41.7781 -89.2517 83° East 476 548 45,000  Level Chicago Center
Wed 01:00:47 PM 41.7922 -89.0756 84° East 478 550 45,000  Level Chicago Center
Wed 01:01:49 PM 41.8072 -88.8994 83° East 480 552 45,000  Level Chicago Center
Wed 01:02:51 PM 41.8211 -88.7261 84° East 473 544 45,000  Level Chicago Center
Wed 01:03:53 PM 41.8339 -88.5500 84° East 476 548 45,000  Level Chicago Center
Wed 01:04:55 PM 41.8511 -88.3386 84° East 476 548 45,000  Level Chicago Center
Wed 01:05:57 PM 41.8639 -88.1617 84° East 476 548 45,000  Level Chicago Center
Wed 01:06:59 PM 41.8764 -87.9861 84° East 472 543 45,000  Level Chicago Center
Wed 01:08:01 PM 41.8897 -87.8089 84° East 474 545 45,000  Level Chicago Center
Wed 01:09:03 PM 41.9017 -87.6331 85° East 474 545 45,000  Level Chicago Center
Wed 01:10:05 PM 41.9136 -87.4583 85° East 472 543 45,000  Level Chicago Center
Wed 01:11:07 PM 41.9281 -87.2475 85° East 472 543 45,000  Level Chicago Center
Wed 01:12:10 PM 41.9406 -87.0722 84° East 473 544 45,000  Level Chicago Center
Wed 01:13:12 PM 41.9517 -86.8956 85° East 476 548 45,000  Level Chicago Center
Wed 01:14:14 PM 41.9636 -86.7189 85° East 477 549 45,000  Level Chicago Center
Wed 01:15:16 PM 41.9753 -86.5222 85° East 480 552 45,000  Level Chicago Center
Wed 01:16:18 PM 41.9850 -86.3439 86° East 479 551 45,000  Level Chicago Center
Wed 01:17:20 PM 41.9964 -86.1656 85° East 481 554 45,000  Level Chicago Center
Wed 01:18:22 PM 42.0072 -85.9872 85° East 479 551 45,000  Level Chicago Center
Wed 01:19:24 PM 42.0178 -85.7850 86° East 483 556 45,000  Level Chicago Center
Wed 01:20:26 PM 42.0272 -85.6047 86° East 486 559 45,000  Level Chicago Center
Wed 01:21:28 PM 42.0378 -85.4256 85° East 485 558 45,000  Level Chicago Center
Wed 01:22:30 PM 42.0467 -85.2422 86° East 492 566 45,000  Level Chicago Center
Wed 01:23:32 PM 42.0564 -85.0567 86° East 498 573 45,000  Level Chicago Center
Wed 01:24:35 PM 42.0661 -84.8367 87° East 494 568 45,000  Level Chicago Center
Wed 01:25:37 PM 42.0753 -84.6536 86° East 492 566 45,000  Level Chicago Center
Wed 01:26:39 PM 42.0831 -84.4697 87° East 494 568 45,000  Level Chicago Center
Wed 01:27:41 PM 42.0911 -84.2858 87° East 494 568 45,000  Level Chicago Center
Wed 01:28:43 PM 42.1033 -84.1025 85° East 494 568 45,000  Level Chicago Center
Wed 01:29:45 PM 42.1286 -83.8817 81° East 498 573 45,000  Level Chicago Center
Wed 01:30:47 PM 42.1481 -83.6983 82° East 498 573 45,000  Level Chicago Center
Wed 01:31:49 PM 42.1661 -83.5150 82° East 497 572 45,000  Level Chicago Center
Wed 01:32:51 PM 42.1856 -83.3308 82° East 498 573 45,000  Level Chicago Center
Wed 01:34:08 PM 42.2081 -83.0725 83° East 502 578 45,000  Level Cleveland Center
Wed 01:35:08 PM 42.2264 -82.8908 82° East 497 572 45,000  Level Cleveland Center
Wed 01:36:08 PM 42.2447 -82.7092 82° East 492 566 45,000  Level Cleveland Center
Wed 01:37:08 PM 42.2603 -82.5275 83° East 492 566 45,000  Level Cleveland Center
Wed 01:38:08 PM 42.2778 -82.3456 83° East 487 560 45,000  Level Cleveland Center
Wed 01:39:08 PM 42.2950 -82.1636 83° East 487 560 45,000  Level Cleveland Center
Wed 01:40:08 PM 42.3119 -81.9956 82° East 482 555 45,000  Level Cleveland Center
Wed 01:41:08 PM 42.3286 -81.8161 83° East 482 555 45,000  Level Cleveland Center
Wed 01:42:07 PM 42.3450 -81.6281 83° East 488 562 45,000  Level Cleveland Center
Wed 01:43:08 PM 42.3592 -81.4403 84° East 500 575 45,000  Level Cleveland Center
Wed 01:44:08 PM 42.3769 -81.2381 83° East 500 575 45,000  Level Cleveland Center
Wed 01:45:08 PM 42.3925 -81.0500 84° East 500 575 45,000  Level Cleveland Center
Wed 01:46:08 PM 42.4056 -80.8586 85° East 500 575 45,000  Level Cleveland Center
Wed 01:47:08 PM 42.4228 -80.6789 83° East 500 575 45,000  Level Cleveland Center
Wed 01:48:08 PM 42.4372 -80.4931 84° East 495 570 45,000  Level Cleveland Center
Wed 01:49:08 PM 42.4494 -80.3047 85° East 501 577 45,000  Level Cleveland Center
Wed 01:50:08 PM 42.4633 -80.1217 84° East 501 577 45,000  Level Cleveland Center
Wed 01:51:08 PM 42.4753 -79.9583 84° East 496 571 45,000  Level Cleveland Center
Wed 01:52:08 PM 42.4908 -79.7750 83° East 496 571 45,000  Level Cleveland Center
Wed 01:53:08 PM 42.5017 -79.5861 85° East 496 571 45,000  Level Cleveland Center
Wed 01:54:08 PM 42.5167 -79.4058 83° East 496 571 45,000  Level Cleveland Center
Wed 01:55:08 PM 42.5272 -79.2197 86° East 496 571 45,000  Level Cleveland Center
Wed 01:56:08 PM 42.5394 -79.0333 85° East 496 571 45,000  Level Cleveland Center
Wed 01:57:08 PM 42.5494 -78.8500 86° East 496 571 45,000  Level Cleveland Center
Wed 01:58:08 PM 42.5611 -78.6664 85° East 496 571 45,000  Level Cleveland Center
Wed 01:59:08 PM 42.5725 -78.4800 85° East 496 571 45,000  Level Cleveland Center
Wed 02:00:08 PM 42.5833 -78.2933 85° East 496 571 45,000  Level Cleveland Center
Wed 02:01:08 PM 42.5922 -78.1097 86° East 496 571 45,000  Level Cleveland Center
Wed 02:02:08 PM 42.6028 -77.9317 85° East 496 571 45,000  Level Cleveland Center
Wed 02:03:08 PM 42.6128 -77.7392 86° East 489 563 45,000  Level Cleveland Center
Wed 02:04:56 PM 42.6286 -77.3794 86° East 506 582 45,000  Level Boston Center
Wed 02:05:56 PM 42.6383 -77.1994 86° East 493 567 45,000  Level Boston Center
Wed 02:06:56 PM 42.6483 -77.0111 86° East 493 567 45,000  Level Boston Center
Wed 02:07:56 PM 42.6556 -76.8250 87° East 493 567 45,000  Level Boston Center
Wed 02:08:56 PM 42.6625 -76.6392 87° East 493 567 45,000  Level Boston Center
Wed 02:09:56 PM 42.6714 -76.4533 86° East 493 567 45,000  Level Boston Center
Wed 02:10:56 PM 42.6631 -76.2692 93° East 493 567 45,000  Level Boston Center
Wed 02:11:56 PM 42.6439 -76.0928 98° East 488 562 45,000  Level Boston Center
Wed 02:12:56 PM 42.6225 -75.9081 99° East 483 556 45,000  Level Boston Center
Wed 02:13:56 PM 42.6008 -75.7264 99° East 489 563 45,000  Level Boston Center
Wed 02:14:56 PM 42.5789 -75.5447 99° East 489 563 45,000 -800 Level Boston Center
Wed 02:15:56 PM 42.5564 -75.3689 100° East 484 557 43,400 -2,100 Descending Boston Center
Wed 02:16:56 PM 42.5358 -75.1903 99° East 484 557 40,800 -2,550 Descending Boston Center
Wed 02:17:56 PM 42.5153 -75.0061 99° East 484 557 38,300 -2,600 Descending Boston Center
Wed 02:18:56 PM 42.4922 -74.8222 100° East 489 563 35,600 -2,700 Descending Boston Center
Wed 02:19:56 PM 42.4667 -74.6328 100° East 489 563 32,900 -2,700 Descending Boston Center
Wed 02:20:56 PM 42.4411 -74.4433 100° East 499 574 30,200 -2,300 Descending Boston Center
Wed 02:21:56 PM 42.4397 -74.2744 91° East 499 574 28,300 -1,950 Descending Boston Center
Wed 02:22:56 PM 42.4386 -74.0831 90° East 504 580 26,300 -1,950 Descending Boston Center
Wed 02:23:56 PM 42.4369 -73.8972 91° East 498 573 24,400 -1,150 Descending Boston Center
Wed 02:24:56 PM 42.4119 -73.7281 101° East 480 552 24,000 -200 Descending Boston Center
Wed 02:25:56 PM 42.3719 -73.5642 108° East 459 528 24,000 -600 Level Boston Center
Wed 02:26:56 PM 42.3278 -73.3753 107° East 459 528 22,800 -1,300 Descending Boston Center
Wed 02:27:56 PM 42.2914 -73.2400 110° East 459 528 21,400 -1,450 Descending Boston Center
Wed 02:28:56 PM 42.2358 -73.0961 118° Southeast 454 522 19,900 -1,200 Descending Boston Center
Wed 02:29:56 PM 42.1614 -72.9892 133° Southeast 379 436 19,000 -450 Descending Boston Center
Wed 02:30:56 PM 42.0931 -72.8961 135° Southeast 349 402 19,000  Level Boston Center
Wed 02:31:56 PM 42.0289 -72.8117 136° Southeast 344 396 19,000  Level Boston Center
Wed 02:32:56 PM 41.9603 -72.7192 135° Southeast 344 396 19,000 -550 Level Boston Center
Wed 02:33:56 PM 41.8939 -72.6019 127° Southeast 354 407 17,900 -1,150 Descending Boston Center
Wed 02:34:56 PM 41.8397 -72.5097 128° Southeast 354 407 16,700 -1,421 Descending Boston Center
Wed 02:35:50 PM 41.7856 -72.4067 125° Southeast 342 394 15,200 -2,257 Descending Boston Center
Wed 02:36:45 PM 41.7314 -72.3178 129° Southeast 335 386 12,600 -2,066 Descending Boston Center
Wed 02:37:52 PM 41.6728 -72.2094 126° Southeast 333 383 11,000 -738 Descending Boston Center
Wed 02:38:47 PM 41.6247 -72.1236 127° Southeast 316 364 11,100 -295 Climbing Boston Center
Wed 02:39:54 PM 41.5597 -72.0267 132° Southeast 312 359 10,400 -797 Descending Boston Center
Wed 02:40:55 PM 41.4806 -72.0328 183° South 278 320 9,400 -984 Descending Boston Center
Wed 02:41:56 PM 41.4181 -72.0581 197° South 259 298 8,400 -744 Descending Boston Center
Wed 02:42:56 PM 41.3433 -72.0889 197° South 259 298 7,900 -950 Descending Boston Center
Wed 02:43:56 PM 41.2850 -72.1086 194° South 253 291 6,500 -950 Descending Boston Center
Wed 02:44:56 PM 41.2119 -72.0897 169° South 242 278 6,000 -300 Descending Boston Center
Wed 02:45:56 PM 41.1683 -72.1008 191° South 228 262 5,900 -50 Descending Boston Center
Wed 02:46:56 PM 41.1164 -72.1619 222° Southwest 222 255 5,900  Level Boston Center
Wed 02:47:56 PM 41.0747 -72.2144 224° Southwest 204 235 5,900  Level Boston Center
Wed 02:48:56 PM 41.0331 -72.2639 222° Southwest 209 241 5,900 -267 Level Boston Center
Wed 02:50:56 PM 40.9333 -72.2833 188° South 239 275 5,100 -548 Descending New York TRACON
Wed 02:52:02 PM 40.9167 -72.2000 105° East 247 284 4,200 -619 Descending New York TRACON
Wed 02:53:02 PM 40.9000 -72.1167 105° East 246 283 3,800 -600 Descending New York TRACON
Wed 02:54:02 PM 40.9000 -72.0333 90° East 244 281 3,000 -400 Descending New York TRACON
Wed 02:55:02 PM 40.9000 -71.9333 90° East 245 282 3,000  Level New York TRACON
Wed 02:56:02 PM 40.9167 -71.8667 72° East 249 287 3,000  Level New York TRACON
Wed 02:57:02 PM 40.9667 -71.9167 323° Northwest 217 250 3,000 -250 Level New York TRACON
Wed 02:58:02 PM 40.9667 -71.9833 270° West 182 209 2,500 -500 Descending New York TRACON

Login

Don't have an account? Register now (free) for customized features, flight alerts, and more!